sensor_id;sensor_type;location;lat;lon;timestamp;P1;durP1;ratioP1;P2;durP2;ratioP2
12129;SDS011;6128;59.340;18.040;2023-10-13T00:01:47;0.57;;;0.30;;
12129;SDS011;6128;59.340;18.040;2023-10-13T00:04:17;0.27;;;0.27;;
12129;SDS011;6128;59.340;18.040;2023-10-13T00:06:47;0.53;;;0.20;;
12129;SDS011;6128;59.340;18.040;2023-10-13T00:09:14;0.33;;;0.20;;
12129;SDS011;6128;59.340;18.040;2023-10-13T00:11:42;1.53;;;0.30;;
12129;SDS011;6128;59.340;18.040;2023-10-13T00:14:13;0.43;;;0.10;;
12129;SDS011;6128;59.340;18.040;2023-10-13T00:16:42;0.20;;;0.20;;
12129;SDS011;6128;59.340;18.040;2023-10-13T00:19:26;0.87;;;0.23;;
12129;SDS011;6128;59.340;18.040;2023-10-13T00:22:02;1.70;;;0.33;;
12129;SDS011;6128;59.340;18.040;2023-10-13T00:24:34;1.30;;;0.30;;
12129;SDS011;6128;59.340;18.040;2023-10-13T00:27:07;0.60;;;0.23;;
12129;SDS011;6128;59.340;18.040;2023-10-13T00:29:51;0.47;;;0.27;;
12129;SDS011;6128;59.340;18.040;2023-10-13T00:32:38;2.20;;;0.30;;
12129;SDS011;6128;59.340;18.040;2023-10-13T00:35:09;0.60;;;0.30;;
12129;SDS011;6128;59.340;18.040;2023-10-13T00:37:36;0.43;;;0.30;;
12129;SDS011;6128;59.340;18.040;2023-10-13T00:40:09;2.73;;;0.43;;
12129;SDS011;6128;59.340;18.040;2023-10-13T00:42:57;1.43;;;0.30;;
12129;SDS011;6128;59.340;18.040;2023-10-13T00:45:47;0.67;;;0.10;;
12129;SDS011;6128;59.340;18.040;2023-10-13T00:48:20;1.87;;;0.30;;
12129;SDS011;6128;59.340;18.040;2023-10-13T00:50:49;0.20;;;0.20;;
12129;SDS011;6128;59.340;18.040;2023-10-13T00:53:16;0.80;;;0.30;;
12129;SDS011;6128;59.340;18.040;2023-10-13T00:55:43;0.87;;;0.40;;
12129;SDS011;6128;59.340;18.040;2023-10-13T00:58:09;0.30;;;0.20;;
12129;SDS011;6128;59.340;18.040;2023-10-13T01:00:37;1.17;;;0.30;;
12129;SDS011;6128;59.340;18.040;2023-10-13T01:03:14;1.10;;;0.60;;
12129;SDS011;6128;59.340;18.040;2023-10-13T01:05:41;0.70;;;0.20;;
12129;SDS011;6128;59.340;18.040;2023-10-13T01:08:08;2.00;;;0.47;;
12129;SDS011;6128;59.340;18.040;2023-10-13T01:10:36;1.43;;;0.40;;
12129;SDS011;6128;59.340;18.040;2023-10-13T01:13:06;1.63;;;0.47;;
12129;SDS011;6128;59.340;18.040;2023-10-13T01:15:33;1.07;;;0.30;;
12129;SDS011;6128;59.340;18.040;2023-10-13T01:18:06;1.50;;;0.30;;
12129;SDS011;6128;59.340;18.040;2023-10-13T01:20:38;2.47;;;0.50;;
12129;SDS011;6128;59.340;18.040;2023-10-13T01:23:11;1.43;;;0.30;;
12129;SDS011;6128;59.340;18.040;2023-10-13T01:25:43;1.77;;;0.37;;
12129;SDS011;6128;59.340;18.040;2023-10-13T01:28:10;1.37;;;0.30;;
12129;SDS011;6128;59.340;18.040;2023-10-13T01:30:41;1.47;;;0.30;;
12129;SDS011;6128;59.340;18.040;2023-10-13T01:33:07;2.60;;;0.50;;
12129;SDS011;6128;59.340;18.040;2023-10-13T01:35:35;2.13;;;0.40;;
12129;SDS011;6128;59.340;18.040;2023-10-13T01:38:14;1.37;;;0.50;;
12129;SDS011;6128;59.340;18.040;2023-10-13T01:40:41;0.73;;;0.40;;
12129;SDS011;6128;59.340;18.040;2023-10-13T01:43:07;2.07;;;0.37;;
12129;SDS011;6128;59.340;18.040;2023-10-13T01:45:36;2.07;;;0.30;;
12129;SDS011;6128;59.340;18.040;2023-10-13T01:48:04;3.53;;;0.40;;
12129;SDS011;6128;59.340;18.040;2023-10-13T01:50:32;1.17;;;0.40;;
12129;SDS011;6128;59.340;18.040;2023-10-13T01:53:01;1.10;;;0.40;;
12129;SDS011;6128;59.340;18.040;2023-10-13T01:55:39;1.50;;;0.63;;
12129;SDS011;6128;59.340;18.040;2023-10-13T01:58:08;1.33;;;0.60;;
12129;SDS011;6128;59.340;18.040;2023-10-13T02:00:40;2.00;;;0.43;;
12129;SDS011;6128;59.340;18.040;2023-10-13T02:03:07;0.90;;;0.30;;
12129;SDS011;6128;59.340;18.040;2023-10-13T02:05:40;1.13;;;0.30;;
12129;SDS011;6128;59.340;18.040;2023-10-13T02:08:12;2.20;;;0.37;;
12129;SDS011;6128;59.340;18.040;2023-10-13T02:10:49;1.17;;;0.47;;
12129;SDS011;6128;59.340;18.040;2023-10-13T02:13:15;0.67;;;0.30;;
12129;SDS011;6128;59.340;18.040;2023-10-13T02:15:44;0.77;;;0.37;;
12129;SDS011;6128;59.340;18.040;2023-10-13T02:18:13;1.07;;;0.27;;
12129;SDS011;6128;59.340;18.040;2023-10-13T02:20:46;0.90;;;0.40;;
12129;SDS011;6128;59.340;18.040;2023-10-13T02:23:19;1.73;;;0.60;;
12129;SDS011;6128;59.340;18.040;2023-10-13T02:25:46;1.27;;;0.53;;
12129;SDS011;6128;59.340;18.040;2023-10-13T02:28:17;2.73;;;0.40;;
12129;SDS011;6128;59.340;18.040;2023-10-13T02:30:53;0.83;;;0.40;;
12129;SDS011;6128;59.340;18.040;2023-10-13T02:33:19;1.77;;;0.40;;
12129;SDS011;6128;59.340;18.040;2023-10-13T02:35:47;1.10;;;0.33;;
12129;SDS011;6128;59.340;18.040;2023-10-13T02:38:19;0.67;;;0.30;;
12129;SDS011;6128;59.340;18.040;2023-10-13T02:41:01;1.20;;;0.33;;
12129;SDS011;6128;59.340;18.040;2023-10-13T02:43:32;1.17;;;0.50;;
12129;SDS011;6128;59.340;18.040;2023-10-13T02:46:00;0.70;;;0.33;;
12129;SDS011;6128;59.340;18.040;2023-10-13T02:48:27;1.07;;;0.60;;
12129;SDS011;6128;59.340;18.040;2023-10-13T02:51:05;1.00;;;0.33;;
12129;SDS011;6128;59.340;18.040;2023-10-13T02:53:32;1.57;;;0.40;;
12129;SDS011;6128;59.340;18.040;2023-10-13T02:56:00;1.50;;;0.70;;
12129;SDS011;6128;59.340;18.040;2023-10-13T02:58:31;1.00;;;0.37;;
12129;SDS011;6128;59.340;18.040;2023-10-13T03:01:06;0.93;;;0.37;;
12129;SDS011;6128;59.340;18.040;2023-10-13T03:03:42;0.70;;;0.40;;
12129;SDS011;6128;59.340;18.040;2023-10-13T03:06:13;1.47;;;0.50;;
12129;SDS011;6128;59.340;18.040;2023-10-13T03:08:40;1.20;;;0.50;;
12129;SDS011;6128;59.340;18.040;2023-10-13T03:11:10;1.70;;;0.40;;
12129;SDS011;6128;59.340;18.040;2023-10-13T03:13:36;1.87;;;0.60;;
12129;SDS011;6128;59.340;18.040;2023-10-13T03:16:12;1.17;;;0.30;;
12129;SDS011;6128;59.340;18.040;2023-10-13T03:18:41;0.60;;;0.30;;
12129;SDS011;6128;59.340;18.040;2023-10-13T03:21:17;1.77;;;0.43;;
12129;SDS011;6128;59.340;18.040;2023-10-13T03:23:54;1.40;;;0.40;;
12129;SDS011;6128;59.340;18.040;2023-10-13T03:26:33;1.40;;;0.37;;
12129;SDS011;6128;59.340;18.040;2023-10-13T03:29:09;1.70;;;0.70;;
12129;SDS011;6128;59.340;18.040;2023-10-13T03:31:38;2.47;;;0.67;;
12129;SDS011;6128;59.340;18.040;2023-10-13T03:34:05;1.23;;;0.47;;
12129;SDS011;6128;59.340;18.040;2023-10-13T03:36:35;1.83;;;0.60;;
12129;SDS011;6128;59.340;18.040;2023-10-13T03:39:16;2.53;;;0.60;;
12129;SDS011;6128;59.340;18.040;2023-10-13T03:41:44;2.63;;;0.60;;
12129;SDS011;6128;59.340;18.040;2023-10-13T03:44:18;1.50;;;0.47;;
12129;SDS011;6128;59.340;18.040;2023-10-13T03:46:45;2.30;;;0.50;;
12129;SDS011;6128;59.340;18.040;2023-10-13T03:49:13;1.77;;;0.40;;
12129;SDS011;6128;59.340;18.040;2023-10-13T03:51:46;0.80;;;0.60;;
12129;SDS011;6128;59.340;18.040;2023-10-13T03:54:14;1.03;;;0.40;;
12129;SDS011;6128;59.340;18.040;2023-10-13T03:56:42;1.50;;;0.73;;
12129;SDS011;6128;59.340;18.040;2023-10-13T03:59:11;1.77;;;0.57;;
12129;SDS011;6128;59.340;18.040;2023-10-13T04:01:45;1.17;;;0.50;;
12129;SDS011;6128;59.340;18.040;2023-10-13T04:04:23;2.33;;;0.50;;
12129;SDS011;6128;59.340;18.040;2023-10-13T04:06:59;2.67;;;0.50;;
12129;SDS011;6128;59.340;18.040;2023-10-13T04:09:52;2.13;;;0.60;;
12129;SDS011;6128;59.340;18.040;2023-10-13T04:12:57;1.10;;;0.60;;
12129;SDS011;6128;59.340;18.040;2023-10-13T04:15:43;2.83;;;0.90;;
12129;SDS011;6128;59.340;18.040;2023-10-13T04:18:32;1.73;;;0.70;;
12129;SDS011;6128;59.340;18.040;2023-10-13T04:21:29;1.90;;;0.87;;
12129;SDS011;6128;59.340;18.040;2023-10-13T04:24:21;1.47;;;0.70;;
12129;SDS011;6128;59.340;18.040;2023-10-13T04:27:05;2.63;;;0.57;;
12129;SDS011;6128;59.340;18.040;2023-10-13T04:29:51;2.13;;;0.60;;
12129;SDS011;6128;59.340;18.040;2023-10-13T04:32:35;2.33;;;0.90;;
12129;SDS011;6128;59.340;18.040;2023-10-13T04:35:04;1.50;;;0.70;;
12129;SDS011;6128;59.340;18.040;2023-10-13T04:37:35;2.70;;;0.70;;
12129;SDS011;6128;59.340;18.040;2023-10-13T04:40:16;1.53;;;0.50;;
12129;SDS011;6128;59.340;18.040;2023-10-13T04:42:49;1.03;;;0.47;;
12129;SDS011;6128;59.340;18.040;2023-10-13T04:45:20;1.93;;;0.60;;
12129;SDS011;6128;59.340;18.040;2023-10-13T04:50:58;3.37;;;0.60;;
12129;SDS011;6128;59.340;18.040;2023-10-13T04:53:42;1.60;;;0.60;;
12129;SDS011;6128;59.340;18.040;2023-10-13T04:56:37;0.97;;;0.63;;
12129;SDS011;6128;59.340;18.040;2023-10-13T04:59:34;3.80;;;1.07;;
12129;SDS011;6128;59.340;18.040;2023-10-13T05:02:03;3.30;;;0.90;;
12129;SDS011;6128;59.340;18.040;2023-10-13T05:04:49;2.97;;;0.83;;
12129;SDS011;6128;59.340;18.040;2023-10-13T05:07:31;2.90;;;1.00;;
12129;SDS011;6128;59.340;18.040;2023-10-13T05:10:15;4.27;;;1.07;;
12129;SDS011;6128;59.340;18.040;2023-10-13T05:13:00;1.90;;;0.73;;
12129;SDS011;6128;59.340;18.040;2023-10-13T05:15:47;2.33;;;0.60;;
12129;SDS011;6128;59.340;18.040;2023-10-13T05:18:34;7.17;;;1.00;;
12129;SDS011;6128;59.340;18.040;2023-10-13T05:21:18;1.83;;;0.70;;
12129;SDS011;6128;59.340;18.040;2023-10-13T05:24:03;2.53;;;0.50;;
12129;SDS011;6128;59.340;18.040;2023-10-13T05:26:48;4.30;;;0.97;;
12129;SDS011;6128;59.340;18.040;2023-10-13T05:29:33;3.67;;;1.10;;
12129;SDS011;6128;59.340;18.040;2023-10-13T05:32:14;1.53;;;0.60;;
12129;SDS011;6128;59.340;18.040;2023-10-13T05:34:59;2.10;;;0.83;;
12129;SDS011;6128;59.340;18.040;2023-10-13T05:37:44;4.70;;;0.97;;
12129;SDS011;6128;59.340;18.040;2023-10-13T05:40:28;2.43;;;0.70;;
12129;SDS011;6128;59.340;18.040;2023-10-13T05:43:13;2.23;;;1.00;;
12129;SDS011;6128;59.340;18.040;2023-10-13T05:46:00;2.07;;;0.70;;
12129;SDS011;6128;59.340;18.040;2023-10-13T05:48:43;2.63;;;0.80;;
12129;SDS011;6128;59.340;18.040;2023-10-13T05:51:36;6.37;;;1.03;;
12129;SDS011;6128;59.340;18.040;2023-10-13T05:54:13;4.27;;;0.93;;
12129;SDS011;6128;59.340;18.040;2023-10-13T05:56:57;8.13;;;1.30;;
12129;SDS011;6128;59.340;18.040;2023-10-13T05:59:42;4.20;;;0.70;;
12129;SDS011;6128;59.340;18.040;2023-10-13T06:02:26;2.63;;;0.80;;
12129;SDS011;6128;59.340;18.040;2023-10-13T06:05:11;3.10;;;0.87;;
12129;SDS011;6128;59.340;18.040;2023-10-13T06:07:57;2.30;;;0.77;;
12129;SDS011;6128;59.340;18.040;2023-10-13T06:10:42;5.67;;;0.90;;
12129;SDS011;6128;59.340;18.040;2023-10-13T06:13:27;4.77;;;0.90;;
12129;SDS011;6128;59.340;18.040;2023-10-13T06:16:12;2.43;;;0.87;;
12129;SDS011;6128;59.340;18.040;2023-10-13T06:18:58;2.93;;;0.90;;
12129;SDS011;6128;59.340;18.040;2023-10-13T06:21:42;2.87;;;0.70;;
12129;SDS011;6128;59.340;18.040;2023-10-13T06:24:29;2.90;;;0.67;;
12129;SDS011;6128;59.340;18.040;2023-10-13T06:27:14;2.93;;;0.53;;
12129;SDS011;6128;59.340;18.040;2023-10-13T06:29:59;3.43;;;1.23;;
12129;SDS011;6128;59.340;18.040;2023-10-13T06:32:28;2.77;;;0.67;;
12129;SDS011;6128;59.340;18.040;2023-10-13T06:34:56;5.00;;;1.30;;
12129;SDS011;6128;59.340;18.040;2023-10-13T06:37:23;3.63;;;1.07;;
12129;SDS011;6128;59.340;18.040;2023-10-13T06:39:53;4.60;;;1.60;;
12129;SDS011;6128;59.340;18.040;2023-10-13T06:42:21;4.17;;;0.90;;
12129;SDS011;6128;59.340;18.040;2023-10-13T06:44:52;2.10;;;0.90;;
12129;SDS011;6128;59.340;18.040;2023-10-13T06:47:20;3.53;;;1.00;;
12129;SDS011;6128;59.340;18.040;2023-10-13T06:49:47;3.80;;;1.17;;
12129;SDS011;6128;59.340;18.040;2023-10-13T06:52:16;4.50;;;0.97;;
12129;SDS011;6128;59.340;18.040;2023-10-13T06:54:43;3.10;;;0.90;;
12129;SDS011;6128;59.340;18.040;2023-10-13T06:57:12;3.07;;;0.80;;
12129;SDS011;6128;59.340;18.040;2023-10-13T06:59:45;5.60;;;1.30;;
12129;SDS011;6128;59.340;18.040;2023-10-13T07:02:12;3.13;;;1.03;;
12129;SDS011;6128;59.340;18.040;2023-10-13T07:04:46;4.27;;;1.23;;
12129;SDS011;6128;59.340;18.040;2023-10-13T07:07:13;2.40;;;0.90;;
12129;SDS011;6128;59.340;18.040;2023-10-13T07:09:40;3.33;;;0.83;;
12129;SDS011;6128;59.340;18.040;2023-10-13T07:12:17;3.50;;;1.00;;
12129;SDS011;6128;59.340;18.040;2023-10-13T07:14:48;2.73;;;1.10;;
12129;SDS011;6128;59.340;18.040;2023-10-13T07:17:18;2.87;;;1.23;;
12129;SDS011;6128;59.340;18.040;2023-10-13T07:19:50;4.07;;;0.90;;
12129;SDS011;6128;59.340;18.040;2023-10-13T07:22:22;1.97;;;1.10;;
12129;SDS011;6128;59.340;18.040;2023-10-13T07:24:51;3.23;;;1.00;;
12129;SDS011;6128;59.340;18.040;2023-10-13T07:27:19;3.63;;;1.37;;
12129;SDS011;6128;59.340;18.040;2023-10-13T07:29:50;2.97;;;1.17;;
12129;SDS011;6128;59.340;18.040;2023-10-13T07:32:38;4.27;;;1.73;;
12129;SDS011;6128;59.340;18.040;2023-10-13T07:35:10;4.83;;;1.33;;
12129;SDS011;6128;59.340;18.040;2023-10-13T07:37:38;4.00;;;1.20;;
12129;SDS011;6128;59.340;18.040;2023-10-13T07:40:07;2.93;;;1.03;;
12129;SDS011;6128;59.340;18.040;2023-10-13T07:42:49;3.53;;;1.13;;
12129;SDS011;6128;59.340;18.040;2023-10-13T07:45:16;6.07;;;0.90;;
12129;SDS011;6128;59.340;18.040;2023-10-13T07:47:50;4.13;;;1.17;;
12129;SDS011;6128;59.340;18.040;2023-10-13T07:50:17;3.93;;;1.40;;
12129;SDS011;6128;59.340;18.040;2023-10-13T07:52:50;3.93;;;1.10;;
12129;SDS011;6128;59.340;18.040;2023-10-13T07:55:30;2.77;;;1.23;;
12129;SDS011;6128;59.340;18.040;2023-10-13T07:58:00;4.57;;;1.47;;
12129;SDS011;6128;59.340;18.040;2023-10-13T08:00:32;5.37;;;1.53;;
12129;SDS011;6128;59.340;18.040;2023-10-13T08:03:12;3.33;;;1.47;;
12129;SDS011;6128;59.340;18.040;2023-10-13T08:05:57;5.00;;;1.27;;
12129;SDS011;6128;59.340;18.040;2023-10-13T08:08:30;5.80;;;1.30;;
12129;SDS011;6128;59.340;18.040;2023-10-13T08:11:03;5.60;;;1.90;;
12129;SDS011;6128;59.340;18.040;2023-10-13T08:13:38;6.23;;;1.30;;
12129;SDS011;6128;59.340;18.040;2023-10-13T08:16:11;5.07;;;1.67;;
12129;SDS011;6128;59.340;18.040;2023-10-13T08:18:46;3.47;;;1.20;;
12129;SDS011;6128;59.340;18.040;2023-10-13T08:21:14;6.03;;;1.23;;
12129;SDS011;6128;59.340;18.040;2023-10-13T08:23:48;4.90;;;1.30;;
12129;SDS011;6128;59.340;18.040;2023-10-13T08:26:30;4.20;;;1.23;;
12129;SDS011;6128;59.340;18.040;2023-10-13T08:29:13;4.40;;;1.20;;
12129;SDS011;6128;59.340;18.040;2023-10-13T08:31:57;3.83;;;1.30;;
12129;SDS011;6128;59.340;18.040;2023-10-13T08:34:46;3.33;;;1.13;;
12129;SDS011;6128;59.340;18.040;2023-10-13T08:37:35;2.43;;;1.00;;
12129;SDS011;6128;59.340;18.040;2023-10-13T08:40:12;4.00;;;1.43;;
12129;SDS011;6128;59.340;18.040;2023-10-13T08:42:57;6.27;;;1.30;;
12129;SDS011;6128;59.340;18.040;2023-10-13T08:45:38;4.63;;;1.27;;
12129;SDS011;6128;59.340;18.040;2023-10-13T08:48:24;4.87;;;1.33;;
12129;SDS011;6128;59.340;18.040;2023-10-13T08:51:00;6.13;;;1.40;;
12129;SDS011;6128;59.340;18.040;2023-10-13T08:53:37;4.87;;;1.43;;
12129;SDS011;6128;59.340;18.040;2023-10-13T08:56:11;5.93;;;1.60;;
12129;SDS011;6128;59.340;18.040;2023-10-13T08:58:43;4.30;;;1.70;;
12129;SDS011;6128;59.340;18.040;2023-10-13T09:01:41;4.90;;;1.37;;
12129;SDS011;6128;59.340;18.040;2023-10-13T09:04:13;5.43;;;1.40;;
12129;SDS011;6128;59.340;18.040;2023-10-13T09:06:47;3.50;;;1.30;;
12129;SDS011;6128;59.340;18.040;2023-10-13T09:09:33;4.33;;;1.07;;
12129;SDS011;6128;59.340;18.040;2023-10-13T09:12:24;8.73;;;1.57;;
12129;SDS011;6128;59.340;18.040;2023-10-13T09:15:01;6.20;;;1.70;;
12129;SDS011;6128;59.340;18.040;2023-10-13T09:17:39;6.23;;;1.70;;
12129;SDS011;6128;59.340;18.040;2023-10-13T09:20:12;3.57;;;1.70;;
12129;SDS011;6128;59.340;18.040;2023-10-13T09:22:58;6.33;;;1.90;;
12129;SDS011;6128;59.340;18.040;2023-10-13T09:25:34;10.00;;;2.00;;
12129;SDS011;6128;59.340;18.040;2023-10-13T09:28:03;4.60;;;1.40;;
12129;SDS011;6128;59.340;18.040;2023-10-13T09:30:43;7.13;;;1.70;;
12129;SDS011;6128;59.340;18.040;2023-10-13T09:33:11;7.00;;;2.20;;
12129;SDS011;6128;59.340;18.040;2023-10-13T09:35:43;6.23;;;1.63;;
12129;SDS011;6128;59.340;18.040;2023-10-13T09:38:14;5.27;;;1.53;;
12129;SDS011;6128;59.340;18.040;2023-10-13T09:40:42;5.80;;;2.17;;
12129;SDS011;6128;59.340;18.040;2023-10-13T09:43:15;6.13;;;1.60;;
12129;SDS011;6128;59.340;18.040;2023-10-13T09:45:43;3.93;;;1.47;;
12129;SDS011;6128;59.340;18.040;2023-10-13T09:48:30;3.73;;;1.30;;
12129;SDS011;6128;59.340;18.040;2023-10-13T09:50:59;6.37;;;1.60;;
12129;SDS011;6128;59.340;18.040;2023-10-13T09:53:29;5.77;;;1.70;;
12129;SDS011;6128;59.340;18.040;2023-10-13T09:56:01;5.47;;;1.73;;
12129;SDS011;6128;59.340;18.040;2023-10-13T09:58:38;4.70;;;1.70;;
12129;SDS011;6128;59.340;18.040;2023-10-13T10:01:17;5.60;;;1.77;;
12129;SDS011;6128;59.340;18.040;2023-10-13T10:04:06;3.63;;;1.60;;
12129;SDS011;6128;59.340;18.040;2023-10-13T10:06:34;6.60;;;1.57;;
12129;SDS011;6128;59.340;18.040;2023-10-13T10:09:11;5.90;;;1.70;;
12129;SDS011;6128;59.340;18.040;2023-10-13T10:11:45;4.87;;;1.53;;
12129;SDS011;6128;59.340;18.040;2023-10-13T10:14:23;5.00;;;2.00;;
12129;SDS011;6128;59.340;18.040;2023-10-13T10:17:05;4.10;;;1.20;;
12129;SDS011;6128;59.340;18.040;2023-10-13T10:19:46;6.40;;;1.97;;
12129;SDS011;6128;59.340;18.040;2023-10-13T10:22:24;4.17;;;1.70;;
12129;SDS011;6128;59.340;18.040;2023-10-13T10:24:56;4.83;;;1.60;;
12129;SDS011;6128;59.340;18.040;2023-10-13T10:27:54;7.00;;;1.90;;
12129;SDS011;6128;59.340;18.040;2023-10-13T10:30:23;5.53;;;1.90;;
12129;SDS011;6128;59.340;18.040;2023-10-13T10:32:53;4.70;;;1.47;;
12129;SDS011;6128;59.340;18.040;2023-10-13T10:35:26;3.90;;;1.43;;
12129;SDS011;6128;59.340;18.040;2023-10-13T10:37:56;6.80;;;1.60;;
12129;SDS011;6128;59.340;18.040;2023-10-13T10:40:28;8.47;;;2.03;;
12129;SDS011;6128;59.340;18.040;2023-10-13T10:43:11;7.20;;;2.07;;
12129;SDS011;6128;59.340;18.040;2023-10-13T10:45:45;4.33;;;1.47;;
12129;SDS011;6128;59.340;18.040;2023-10-13T10:48:13;6.23;;;1.70;;
12129;SDS011;6128;59.340;18.040;2023-10-13T10:50:45;4.23;;;1.47;;
12129;SDS011;6128;59.340;18.040;2023-10-13T10:53:19;5.40;;;1.80;;
12129;SDS011;6128;59.340;18.040;2023-10-13T10:56:03;4.70;;;1.50;;
12129;SDS011;6128;59.340;18.040;2023-10-13T10:58:34;6.73;;;1.93;;
12129;SDS011;6128;59.340;18.040;2023-10-13T11:01:09;5.40;;;1.80;;
12129;SDS011;6128;59.340;18.040;2023-10-13T11:03:37;6.30;;;1.73;;
12129;SDS011;6128;59.340;18.040;2023-10-13T11:06:12;10.40;;;1.73;;
12129;SDS011;6128;59.340;18.040;2023-10-13T11:08:44;6.10;;;2.20;;
12129;SDS011;6128;59.340;18.040;2023-10-13T11:11:16;5.33;;;2.23;;
12129;SDS011;6128;59.340;18.040;2023-10-13T11:13:55;6.77;;;2.13;;
12129;SDS011;6128;59.340;18.040;2023-10-13T11:16:44;8.73;;;2.50;;
12129;SDS011;6128;59.340;18.040;2023-10-13T11:19:15;6.00;;;1.53;;
12129;SDS011;6128;59.340;18.040;2023-10-13T11:21:46;6.50;;;1.73;;
12129;SDS011;6128;59.340;18.040;2023-10-13T11:24:14;6.10;;;1.60;;
12129;SDS011;6128;59.340;18.040;2023-10-13T11:26:42;7.67;;;2.43;;
12129;SDS011;6128;59.340;18.040;2023-10-13T11:29:15;6.57;;;1.90;;
12129;SDS011;6128;59.340;18.040;2023-10-13T11:31:45;5.70;;;2.20;;
12129;SDS011;6128;59.340;18.040;2023-10-13T11:34:22;7.67;;;1.90;;
12129;SDS011;6128;59.340;18.040;2023-10-13T11:36:51;6.30;;;1.80;;
12129;SDS011;6128;59.340;18.040;2023-10-13T11:39:19;9.00;;;2.00;;
12129;SDS011;6128;59.340;18.040;2023-10-13T11:41:50;8.37;;;1.83;;
12129;SDS011;6128;59.340;18.040;2023-10-13T11:44:20;10.10;;;2.10;;
12129;SDS011;6128;59.340;18.040;2023-10-13T11:46:56;5.73;;;2.13;;
12129;SDS011;6128;59.340;18.040;2023-10-13T11:49:33;8.57;;;4.13;;
12129;SDS011;6128;59.340;18.040;2023-10-13T11:52:03;7.27;;;1.97;;
12129;SDS011;6128;59.340;18.040;2023-10-13T11:54:43;4.20;;;1.53;;
12129;SDS011;6128;59.340;18.040;2023-10-13T11:57:12;7.37;;;2.20;;
12129;SDS011;6128;59.340;18.040;2023-10-13T11:59:42;7.63;;;2.40;;
12129;SDS011;6128;59.340;18.040;2023-10-13T12:02:19;6.30;;;2.20;;
12129;SDS011;6128;59.340;18.040;2023-10-13T12:05:05;9.10;;;2.63;;
12129;SDS011;6128;59.340;18.040;2023-10-13T12:07:39;6.17;;;1.93;;
12129;SDS011;6128;59.340;18.040;2023-10-13T12:10:10;7.33;;;1.90;;
12129;SDS011;6128;59.340;18.040;2023-10-13T12:12:45;9.47;;;2.40;;
12129;SDS011;6128;59.340;18.040;2023-10-13T12:15:18;6.87;;;2.30;;
12129;SDS011;6128;59.340;18.040;2023-10-13T12:17:59;8.27;;;2.23;;
12129;SDS011;6128;59.340;18.040;2023-10-13T12:20:28;6.13;;;2.47;;
12129;SDS011;6128;59.340;18.040;2023-10-13T12:23:02;6.03;;;2.07;;
12129;SDS011;6128;59.340;18.040;2023-10-13T12:25:42;7.60;;;2.10;;
12129;SDS011;6128;59.340;18.040;2023-10-13T12:28:20;9.67;;;2.60;;
12129;SDS011;6128;59.340;18.040;2023-10-13T12:30:51;7.10;;;2.17;;
12129;SDS011;6128;59.340;18.040;2023-10-13T12:33:18;7.57;;;2.07;;
12129;SDS011;6128;59.340;18.040;2023-10-13T12:36:02;7.00;;;2.00;;
12129;SDS011;6128;59.340;18.040;2023-10-13T12:38:33;8.47;;;2.53;;
12129;SDS011;6128;59.340;18.040;2023-10-13T12:41:16;12.93;;;2.47;;
12129;SDS011;6128;59.340;18.040;2023-10-13T12:44:03;8.60;;;1.97;;
12129;SDS011;6128;59.340;18.040;2023-10-13T12:46:49;6.07;;;2.10;;
12129;SDS011;6128;59.340;18.040;2023-10-13T12:49:33;8.53;;;2.17;;
12129;SDS011;6128;59.340;18.040;2023-10-13T12:52:23;10.87;;;2.93;;
12129;SDS011;6128;59.340;18.040;2023-10-13T12:54:53;10.53;;;2.90;;
12129;SDS011;6128;59.340;18.040;2023-10-13T12:57:35;9.03;;;2.70;;
12129;SDS011;6128;59.340;18.040;2023-10-13T13:00:09;9.93;;;2.50;;
12129;SDS011;6128;59.340;18.040;2023-10-13T13:02:46;6.80;;;2.00;;
12129;SDS011;6128;59.340;18.040;2023-10-13T13:05:16;7.50;;;2.30;;
12129;SDS011;6128;59.340;18.040;2023-10-13T13:07:46;7.00;;;2.33;;
12129;SDS011;6128;59.340;18.040;2023-10-13T13:10:19;10.20;;;2.07;;
12129;SDS011;6128;59.340;18.040;2023-10-13T13:12:54;9.47;;;2.20;;
12129;SDS011;6128;59.340;18.040;2023-10-13T13:15:21;7.70;;;2.47;;
12129;SDS011;6128;59.340;18.040;2023-10-13T13:17:49;6.73;;;2.20;;
12129;SDS011;6128;59.340;18.040;2023-10-13T13:20:16;10.33;;;2.73;;
12129;SDS011;6128;59.340;18.040;2023-10-13T13:22:53;7.97;;;2.27;;
12129;SDS011;6128;59.340;18.040;2023-10-13T13:25:28;6.77;;;2.13;;
12129;SDS011;6128;59.340;18.040;2023-10-13T13:27:58;6.63;;;2.00;;
12129;SDS011;6128;59.340;18.040;2023-10-13T13:30:30;8.53;;;2.33;;
12129;SDS011;6128;59.340;18.040;2023-10-13T13:32:59;7.27;;;2.07;;
12129;SDS011;6128;59.340;18.040;2023-10-13T13:35:29;7.40;;;2.33;;
12129;SDS011;6128;59.340;18.040;2023-10-13T13:38:00;6.73;;;2.00;;
12129;SDS011;6128;59.340;18.040;2023-10-13T13:40:36;7.77;;;2.77;;
12129;SDS011;6128;59.340;18.040;2023-10-13T13:43:04;6.00;;;1.93;;
12129;SDS011;6128;59.340;18.040;2023-10-13T13:45:32;4.33;;;1.83;;
12129;SDS011;6128;59.340;18.040;2023-10-13T13:48:00;11.23;;;2.47;;
12129;SDS011;6128;59.340;18.040;2023-10-13T13:50:33;10.10;;;2.63;;
12129;SDS011;6128;59.340;18.040;2023-10-13T13:53:06;7.53;;;2.37;;
12129;SDS011;6128;59.340;18.040;2023-10-13T13:55:36;8.60;;;2.37;;
12129;SDS011;6128;59.340;18.040;2023-10-13T13:58:05;8.67;;;3.20;;
12129;SDS011;6128;59.340;18.040;2023-10-13T14:00:35;7.50;;;2.80;;
12129;SDS011;6128;59.340;18.040;2023-10-13T14:03:04;7.37;;;2.47;;
12129;SDS011;6128;59.340;18.040;2023-10-13T14:05:40;9.53;;;2.30;;
12129;SDS011;6128;59.340;18.040;2023-10-13T14:08:10;10.87;;;2.97;;
12129;SDS011;6128;59.340;18.040;2023-10-13T14:10:41;6.80;;;2.67;;
12129;SDS011;6128;59.340;18.040;2023-10-13T14:13:22;6.17;;;2.23;;
12129;SDS011;6128;59.340;18.040;2023-10-13T14:16:09;9.77;;;2.70;;
12129;SDS011;6128;59.340;18.040;2023-10-13T14:18:41;6.30;;;2.40;;
12129;SDS011;6128;59.340;18.040;2023-10-13T14:21:08;5.67;;;2.20;;
12129;SDS011;6128;59.340;18.040;2023-10-13T14:23:35;9.93;;;2.57;;
12129;SDS011;6128;59.340;18.040;2023-10-13T14:26:05;7.40;;;2.60;;
12129;SDS011;6128;59.340;18.040;2023-10-13T14:28:34;9.70;;;2.90;;
12129;SDS011;6128;59.340;18.040;2023-10-13T14:31:04;7.70;;;2.03;;
12129;SDS011;6128;59.340;18.040;2023-10-13T14:33:35;8.17;;;2.67;;
12129;SDS011;6128;59.340;18.040;2023-10-13T14:36:04;14.47;;;3.77;;
12129;SDS011;6128;59.340;18.040;2023-10-13T14:38:31;9.47;;;2.63;;
12129;SDS011;6128;59.340;18.040;2023-10-13T14:40:59;11.57;;;2.97;;
12129;SDS011;6128;59.340;18.040;2023-10-13T14:43:27;8.07;;;2.43;;
12129;SDS011;6128;59.340;18.040;2023-10-13T14:45:55;11.33;;;2.93;;
12129;SDS011;6128;59.340;18.040;2023-10-13T14:48:25;9.47;;;2.50;;
12129;SDS011;6128;59.340;18.040;2023-10-13T14:50:53;8.83;;;2.87;;
12129;SDS011;6128;59.340;18.040;2023-10-13T14:53:20;9.03;;;2.83;;
12129;SDS011;6128;59.340;18.040;2023-10-13T14:55:47;8.70;;;3.23;;
12129;SDS011;6128;59.340;18.040;2023-10-13T14:58:16;12.87;;;3.50;;
12129;SDS011;6128;59.340;18.040;2023-10-13T15:00:45;12.70;;;3.60;;
12129;SDS011;6128;59.340;18.040;2023-10-13T15:03:12;11.17;;;3.00;;
12129;SDS011;6128;59.340;18.040;2023-10-13T15:05:39;8.50;;;2.73;;
12129;SDS011;6128;59.340;18.040;2023-10-13T15:08:08;12.87;;;3.73;;
12129;SDS011;6128;59.340;18.040;2023-10-13T15:10:35;10.17;;;2.37;;
12129;SDS011;6128;59.340;18.040;2023-10-13T15:13:02;12.63;;;3.20;;
12129;SDS011;6128;59.340;18.040;2023-10-13T15:15:30;9.60;;;2.90;;
12129;SDS011;6128;59.340;18.040;2023-10-13T15:17:59;9.23;;;3.07;;
12129;SDS011;6128;59.340;18.040;2023-10-13T15:20:26;8.67;;;3.00;;
12129;SDS011;6128;59.340;18.040;2023-10-13T15:22:53;11.40;;;3.13;;
12129;SDS011;6128;59.340;18.040;2023-10-13T15:25:25;12.30;;;4.03;;
12129;SDS011;6128;59.340;18.040;2023-10-13T15:27:59;14.73;;;3.17;;
12129;SDS011;6128;59.340;18.040;2023-10-13T15:30:28;14.80;;;3.37;;
12129;SDS011;6128;59.340;18.040;2023-10-13T15:33:10;9.87;;;3.00;;
12129;SDS011;6128;59.340;18.040;2023-10-13T15:35:38;13.03;;;3.47;;